createdAt,value
2023-03-29T00:00:06.040Z,1
2023-03-29T00:01:49.701Z,1
2023-03-29T00:03:33.096Z,1
2023-03-29T00:05:16.514Z,1
2023-03-29T00:06:59.903Z,1
2023-03-29T00:08:43.284Z,1
2023-03-29T00:10:26.676Z,1
2023-03-29T00:12:10.074Z,1
2023-03-29T00:13:53.572Z,2
2023-03-29T00:15:37.250Z,1
2023-03-29T00:17:20.597Z,1
2023-03-29T00:19:03.980Z,1
2023-03-29T00:20:47.376Z,1
2023-03-29T00:22:30.772Z,0
2023-03-29T00:24:14.175Z,1
2023-03-29T00:25:57.563Z,0
2023-03-29T00:27:40.959Z,2
2023-03-29T00:29:24.680Z,1
2023-03-29T00:31:08.054Z,1
2023-03-29T00:32:51.457Z,1
2023-03-29T00:34:34.854Z,1
2023-03-29T00:36:18.241Z,1
2023-03-29T00:38:01.653Z,1
2023-03-29T00:39:45.051Z,1
2023-03-29T00:41:28.432Z,1
2023-03-29T00:44:54.902Z,1
2023-03-29T00:46:38.328Z,1
2023-03-29T00:48:21.702Z,1
2023-03-29T00:50:05.103Z,1
2023-03-29T00:51:48.496Z,1
2023-03-29T00:53:31.902Z,2
2023-03-29T00:55:15.289Z,1
2023-03-29T00:56:58.672Z,1
2023-03-29T01:00:25.164Z,1
2023-03-29T01:02:08.593Z,2
2023-03-29T01:03:51.948Z,1
2023-03-29T01:05:35.352Z,1
2023-03-29T01:07:18.787Z,0
2023-03-29T01:09:02.149Z,1
2023-03-29T01:10:45.622Z,1
2023-03-29T01:12:28.963Z,1
2023-03-29T01:17:38.179Z,2
2023-03-29T01:19:21.578Z,1
2023-03-29T01:21:04.974Z,1
2023-03-29T01:22:48.374Z,1
2023-03-29T01:24:31.761Z,1
2023-03-29T01:26:15.187Z,1
2023-03-29T01:27:58.591Z,1
2023-03-29T01:29:41.951Z,1
2023-03-29T01:33:08.444Z,1
2023-03-29T01:34:51.823Z,1
2023-03-29T01:36:35.202Z,1
2023-03-29T01:38:18.608Z,1
2023-03-29T01:40:02.024Z,1
2023-03-29T01:41:45.393Z,2
2023-03-29T01:43:28.795Z,1
2023-03-29T01:45:12.193Z,1
2023-03-29T01:48:38.704Z,0
2023-03-29T01:50:22.060Z,1
2023-03-29T01:52:05.465Z,1
2023-03-29T01:53:48.892Z,1
2023-03-29T01:55:32.248Z,1
2023-03-29T01:57:15.640Z,1
2023-03-29T01:58:59.043Z,2
2023-03-29T02:00:42.489Z,1
2023-03-29T02:02:26.156Z,1
2023-03-29T02:04:09.528Z,1
2023-03-29T02:05:52.921Z,1
2023-03-29T02:07:36.344Z,1
2023-03-29T02:09:19.703Z,1
2023-03-29T02:11:03.116Z,1
2023-03-29T02:12:46.518Z,1
2023-03-29T02:14:29.910Z,1
2023-03-29T02:17:56.417Z,1
2023-03-29T02:19:39.778Z,1
2023-03-29T02:21:23.182Z,1
2023-03-29T02:23:06.581Z,1
2023-03-29T02:24:49.966Z,1
2023-03-29T02:26:33.378Z,1
2023-03-29T02:28:16.758Z,1
2023-03-29T02:30:00.162Z,1
2023-03-29T02:33:26.632Z,1
2023-03-29T02:35:10.055Z,1
2023-03-29T02:36:53.424Z,1
2023-03-29T02:38:36.820Z,1
2023-03-29T02:40:20.231Z,1
2023-03-29T02:42:03.614Z,1
2023-03-29T02:43:47.015Z,1
2023-03-29T02:48:56.267Z,1
2023-03-29T02:50:39.678Z,1
2023-03-29T02:52:23.038Z,1
2023-03-29T02:54:06.452Z,1
2023-03-29T02:55:49.852Z,0
2023-03-29T02:57:33.231Z,12
2023-03-29T02:59:16.637Z,12
2023-03-29T03:04:25.876Z,1
2023-03-29T03:06:09.264Z,1
2023-03-29T03:07:52.663Z,1
2023-03-29T03:09:36.061Z,1
2023-03-29T03:11:19.466Z,1
2023-03-29T03:13:02.889Z,1
2023-03-29T03:14:46.245Z,1
2023-03-29T03:19:55.515Z,1
2023-03-29T03:21:38.876Z,1
2023-03-29T03:23:22.277Z,1
2023-03-29T03:25:05.671Z,1
2023-03-29T03:26:49.093Z,1
2023-03-29T03:28:32.459Z,1
2023-03-29T03:30:15.858Z,1
2023-03-29T03:35:25.101Z,1
2023-03-29T03:37:08.510Z,2
2023-03-29T03:38:51.929Z,1
2023-03-29T03:40:35.284Z,1
2023-03-29T03:42:18.686Z,1
2023-03-29T03:44:02.071Z,2
2023-03-29T03:45:45.496Z,1
2023-03-29T03:47:28.874Z,1
2023-03-29T03:50:55.417Z,1
2023-03-29T03:52:38.781Z,1
2023-03-29T03:54:22.140Z,1
2023-03-29T03:56:05.544Z,1
2023-03-29T03:57:48.946Z,1
2023-03-29T03:59:32.343Z,1
2023-03-29T04:01:15.733Z,1
2023-03-29T04:02:59.164Z,1
2023-03-29T04:06:25.581Z,1
2023-03-29T04:08:08.993Z,1
2023-03-29T04:09:52.395Z,1
2023-03-29T04:11:35.839Z,1
2023-03-29T04:13:19.176Z,1
2023-03-29T04:15:02.581Z,1
2023-03-29T04:16:45.957Z,1
2023-03-29T04:18:29.373Z,1
2023-03-29T04:21:55.838Z,1
2023-03-29T04:23:39.247Z,1
2023-03-29T04:25:22.635Z,1
2023-03-29T04:27:06.255Z,1
2023-03-29T04:28:49.431Z,1
2023-03-29T04:30:32.813Z,1
2023-03-29T04:32:16.207Z,1
2023-03-29T04:33:59.635Z,1
2023-03-29T04:37:26.093Z,0
2023-03-29T04:39:09.485Z,1
2023-03-29T04:40:52.884Z,1
2023-03-29T04:42:36.280Z,1
2023-03-29T04:44:19.672Z,1
2023-03-29T04:46:03.063Z,1
2023-03-29T04:47:46.461Z,1
2023-03-29T04:49:29.874Z,1
2023-03-29T04:51:13.564Z,1
2023-03-29T04:52:56.990Z,1
2023-03-29T04:54:40.360Z,1
2023-03-29T04:56:23.751Z,1
2023-03-29T04:58:07.166Z,0
2023-03-29T04:59:50.550Z,1
2023-03-29T05:01:33.945Z,1
2023-03-29T05:03:17.321Z,1
2023-03-29T05:05:01.027Z,1
2023-03-29T05:06:44.420Z,1
2023-03-29T05:08:27.820Z,1
2023-03-29T05:10:11.208Z,1
2023-03-29T05:11:54.657Z,2
2023-03-29T05:13:38.025Z,1
2023-03-29T05:15:21.414Z,1
2023-03-29T05:17:04.792Z,1
2023-03-29T05:20:31.306Z,1
2023-03-29T05:22:14.665Z,1
2023-03-29T05:23:58.080Z,1
2023-03-29T05:25:41.465Z,1
2023-03-29T05:27:24.880Z,1
2023-03-29T05:29:08.289Z,0
2023-03-29T05:30:51.684Z,1
2023-03-29T05:36:00.906Z,1
2023-03-29T05:37:44.289Z,1
2023-03-29T05:39:27.687Z,1
2023-03-29T05:41:11.085Z,1
2023-03-29T05:42:54.484Z,1
2023-03-29T05:44:37.874Z,1
2023-03-29T05:46:21.290Z,1
2023-03-29T05:49:47.747Z,1
2023-03-29T05:51:31.169Z,1
2023-03-29T05:53:14.542Z,1
2023-03-29T05:54:58.004Z,1
2023-03-29T05:56:41.342Z,0
2023-03-29T05:58:24.714Z,1
2023-03-29T06:00:08.187Z,1
2023-03-29T06:01:51.518Z,2
2023-03-29T06:05:17.998Z,1
2023-03-29T06:07:01.399Z,1
2023-03-29T06:08:44.789Z,1
2023-03-29T06:10:28.203Z,1
2023-03-29T06:12:11.581Z,1
2023-03-29T06:13:54.966Z,1
2023-03-29T06:15:38.432Z,1
2023-03-29T06:17:21.840Z,2
2023-03-29T06:19:05.494Z,1
2023-03-29T06:20:48.866Z,1
2023-03-29T06:22:32.256Z,1
2023-03-29T06:24:15.684Z,1
2023-03-29T06:25:59.056Z,1
2023-03-29T06:27:42.445Z,2
2023-03-29T06:29:25.852Z,1
2023-03-29T06:31:09.239Z,2
2023-03-29T06:32:52.948Z,1
2023-03-29T06:34:36.389Z,1
2023-03-29T06:36:19.731Z,2
2023-03-29T06:38:03.142Z,1
2023-03-29T06:39:46.533Z,1
2023-03-29T06:41:29.942Z,1
2023-03-29T06:43:13.325Z,1
2023-03-29T06:48:22.577Z,1
2023-03-29T06:50:05.987Z,1
2023-03-29T06:51:49.346Z,1
2023-03-29T06:53:32.752Z,1
2023-03-29T06:55:16.149Z,1
2023-03-29T06:56:59.540Z,2
2023-03-29T06:58:42.951Z,1
2023-03-29T07:03:52.200Z,15
2023-03-29T07:05:35.589Z,17
2023-03-29T07:07:18.969Z,17
2023-03-29T07:09:02.360Z,19
2023-03-29T07:10:45.775Z,21
2023-03-29T07:12:29.180Z,21
2023-03-29T07:14:12.559Z,18
2023-03-29T07:19:21.786Z,21
2023-03-29T07:21:05.196Z,22
2023-03-29T07:22:48.597Z,22
2023-03-29T07:24:32.004Z,21
2023-03-29T07:26:15.382Z,21
2023-03-29T07:27:58.786Z,22
2023-03-29T07:29:42.182Z,22
2023-03-29T07:34:51.409Z,27
2023-03-29T07:36:34.800Z,27
2023-03-29T07:38:18.203Z,27
2023-03-29T07:40:01.601Z,51
2023-03-29T07:41:44.988Z,54
2023-03-29T07:43:28.394Z,49
2023-03-29T07:45:11.776Z,45
2023-03-29T07:48:38.264Z,41
2023-03-29T07:50:21.665Z,38
2023-03-29T07:52:05.057Z,35
2023-03-29T07:53:48.522Z,34
2023-03-29T07:55:31.853Z,33
2023-03-29T07:57:15.235Z,33
2023-03-29T07:58:58.631Z,34
2023-03-29T08:02:25.130Z,35
2023-03-29T08:04:08.501Z,40
2023-03-29T08:05:51.919Z,45
2023-03-29T08:07:35.300Z,51
2023-03-29T08:09:18.725Z,59
2023-03-29T08:11:02.096Z,65
2023-03-29T08:12:45.494Z,60
2023-03-29T08:17:54.718Z,61
2023-03-29T08:19:38.115Z,63
2023-03-29T08:21:21.524Z,61
2023-03-29T08:24:48.318Z,59
2023-03-29T08:26:31.707Z,59
2023-03-29T08:28:15.103Z,61
2023-03-29T08:33:24.339Z,84
2023-03-29T08:35:07.747Z,78
2023-03-29T08:36:51.132Z,72
2023-03-29T08:38:34.546Z,66
2023-03-29T08:40:17.989Z,61
2023-03-29T08:42:01.683Z,60
2023-03-29T08:43:44.713Z,64
2023-03-29T08:45:28.117Z,65
2023-03-29T08:48:54.585Z,64
2023-03-29T08:50:38.020Z,62
2023-03-29T08:52:21.387Z,59
2023-03-29T08:54:04.792Z,54
2023-03-29T08:55:48.203Z,53
2023-03-29T08:57:31.603Z,51
2023-03-29T08:59:14.984Z,50
2023-03-29T09:00:58.375Z,51
2023-03-29T09:04:24.835Z,55
2023-03-29T09:06:08.235Z,59
2023-03-29T09:07:51.656Z,62
2023-03-29T09:09:35.024Z,67
2023-03-29T09:11:18.541Z,72
2023-03-29T09:13:01.809Z,75
2023-03-29T09:14:45.218Z,78
2023-03-29T09:16:28.600Z,77
2023-03-29T09:19:55.093Z,91
2023-03-29T09:21:38.476Z,90
2023-03-29T09:23:21.906Z,86
2023-03-29T09:25:05.261Z,91
2023-03-29T09:26:59.808Z,151
2023-03-29T09:28:32.053Z,155
2023-03-29T09:30:15.537Z,174
2023-03-29T09:31:58.856Z,223
2023-03-29T09:33:42.549Z,190
2023-03-29T09:35:25.959Z,214
2023-03-29T09:37:09.369Z,198
2023-03-29T09:38:52.727Z,298
2023-03-29T09:40:36.121Z,321
2023-03-29T09:42:19.536Z,298
2023-03-29T09:44:02.909Z,338
2023-03-29T09:45:46.323Z,351
2023-03-29T09:49:12.802Z,343
2023-03-29T09:50:56.177Z,355
2023-03-29T09:52:39.577Z,339
2023-03-29T09:54:22.980Z,320
2023-03-29T09:56:06.400Z,335
2023-03-29T09:57:49.784Z,367
2023-03-29T09:59:33.185Z,385
2023-03-29T10:04:42.452Z,397
2023-03-29T10:06:25.812Z,465
2023-03-29T10:08:09.208Z,482
2023-03-29T10:09:52.598Z,436
2023-03-29T10:11:36.018Z,417
2023-03-29T10:13:19.405Z,391
2023-03-29T10:15:02.806Z,374
2023-03-29T10:16:46.239Z,364
2023-03-29T10:18:29.914Z,387
2023-03-29T10:20:13.297Z,477
2023-03-29T10:21:56.691Z,699
2023-03-29T10:23:40.075Z,432
2023-03-29T10:25:23.476Z,406
2023-03-29T10:27:06.870Z,405
2023-03-29T10:28:50.276Z,407
2023-03-29T10:30:33.667Z,412
2023-03-29T10:34:00.136Z,415
2023-03-29T10:35:43.537Z,395
2023-03-29T10:37:26.944Z,387
2023-03-29T10:39:10.444Z,397
2023-03-29T10:40:53.753Z,397
2023-03-29T10:42:37.146Z,359
2023-03-29T10:44:20.520Z,331
2023-03-29T10:49:29.746Z,329
2023-03-29T10:51:13.151Z,370
2023-03-29T10:52:56.562Z,423
2023-03-29T10:54:39.970Z,524
2023-03-29T10:56:23.375Z,404
2023-03-29T10:58:06.789Z,375
2023-03-29T10:59:50.170Z,393
2023-03-29T11:04:59.368Z,305
2023-03-29T11:06:42.757Z,317
2023-03-29T11:08:26.160Z,338
2023-03-29T11:10:09.583Z,369
2023-03-29T11:11:52.969Z,394
2023-03-29T11:13:36.374Z,421
2023-03-29T11:18:46.216Z,398
2023-03-29T11:20:29.623Z,400
2023-03-29T11:22:13.020Z,409
2023-03-29T11:23:56.417Z,409
2023-03-29T11:25:39.805Z,413
2023-03-29T11:27:23.211Z,404
2023-03-29T11:29:06.617Z,407
2023-03-29T11:30:50.005Z,411
2023-03-29T11:34:16.494Z,425
2023-03-29T11:35:59.862Z,400
2023-03-29T11:37:43.267Z,393
2023-03-29T11:39:26.664Z,379
2023-03-29T11:41:10.115Z,368
2023-03-29T11:42:53.499Z,364
2023-03-29T11:44:36.847Z,373
2023-03-29T11:46:20.256Z,392
2023-03-29T11:48:03.956Z,402
2023-03-29T11:49:47.353Z,419
2023-03-29T11:51:30.726Z,430
2023-03-29T11:53:14.132Z,417
2023-03-29T11:54:57.516Z,403
2023-03-29T11:56:40.927Z,406
2023-03-29T11:58:24.902Z,412
2023-03-29T12:00:07.772Z,394
2023-03-29T12:01:51.434Z,383
2023-03-29T12:03:34.839Z,361
2023-03-29T12:05:18.227Z,350
2023-03-29T12:07:01.607Z,348
2023-03-29T12:08:45.015Z,337
2023-03-29T12:10:28.405Z,330
2023-03-29T12:12:11.796Z,317
2023-03-29T12:17:21.054Z,367
2023-03-29T12:19:04.435Z,368
2023-03-29T12:20:47.889Z,369
2023-03-29T12:22:31.245Z,372
2023-03-29T12:24:14.649Z,372
2023-03-29T12:25:58.024Z,372
2023-03-29T12:27:41.411Z,372
2023-03-29T12:32:50.662Z,350
2023-03-29T12:34:34.054Z,341
2023-03-29T12:36:17.448Z,342
2023-03-29T12:38:00.867Z,343
2023-03-29T12:39:44.247Z,344
2023-03-29T12:41:27.647Z,342
2023-03-29T12:43:11.054Z,341
2023-03-29T12:44:54.437Z,343
2023-03-29T12:46:38.147Z,360
2023-03-29T12:48:21.542Z,391
2023-03-29T12:50:04.948Z,421
2023-03-29T12:51:48.334Z,448
2023-03-29T12:53:31.735Z,469
2023-03-29T12:55:15.137Z,434
2023-03-29T12:56:58.531Z,406
2023-03-29T12:58:41.925Z,366
2023-03-29T13:02:08.392Z,346
2023-03-29T13:03:51.796Z,330
2023-03-29T13:05:35.202Z,323
2023-03-29T13:07:18.578Z,323
2023-03-29T13:09:01.984Z,333
2023-03-29T13:10:45.381Z,344
2023-03-29T13:12:28.787Z,379
2023-03-29T13:14:12.168Z,451
2023-03-29T13:17:38.647Z,451
2023-03-29T13:19:22.046Z,434
2023-03-29T13:21:05.427Z,463
2023-03-29T13:22:48.841Z,466
2023-03-29T13:24:32.221Z,451
2023-03-29T13:26:15.615Z,462
2023-03-29T13:27:59.023Z,405
2023-03-29T13:29:42.409Z,354
2023-03-29T13:33:08.903Z,324
2023-03-29T13:34:52.289Z,275
2023-03-29T13:36:35.684Z,267
2023-03-29T13:38:19.076Z,250
2023-03-29T13:40:02.483Z,244
2023-03-29T13:41:45.915Z,258
2023-03-29T13:43:29.268Z,272
2023-03-29T13:45:12.750Z,271
2023-03-29T13:46:56.394Z,270
2023-03-29T13:48:39.776Z,279
2023-03-29T13:50:23.177Z,266
2023-03-29T13:52:06.597Z,256
2023-03-29T13:53:49.956Z,285
2023-03-29T13:55:33.383Z,297
2023-03-29T13:57:16.769Z,275
2023-03-29T13:59:00.140Z,256
2023-03-29T14:00:43.857Z,269
2023-03-29T14:02:27.256Z,255
2023-03-29T14:04:10.648Z,236
2023-03-29T14:05:54.047Z,235
2023-03-29T14:07:37.451Z,210
2023-03-29T14:09:20.835Z,191
2023-03-29T14:11:04.240Z,213
2023-03-29T14:12:47.637Z,234
2023-03-29T14:14:31.328Z,200
2023-03-29T14:16:14.730Z,173
2023-03-29T14:17:58.153Z,178
2023-03-29T14:19:41.520Z,181
2023-03-29T14:21:24.954Z,172
2023-03-29T14:23:08.325Z,182
2023-03-29T14:24:51.722Z,172
2023-03-29T14:26:35.121Z,179
2023-03-29T14:28:18.820Z,197
2023-03-29T14:30:02.239Z,195
2023-03-29T14:31:45.616Z,207
2023-03-29T14:33:29.013Z,272
2023-03-29T14:35:12.406Z,282
2023-03-29T14:36:55.814Z,241
2023-03-29T14:38:39.197Z,233
2023-03-29T14:40:22.608Z,200
2023-03-29T14:43:49.073Z,164
2023-03-29T14:45:32.517Z,151
2023-03-29T14:47:15.866Z,158
2023-03-29T14:48:59.261Z,160
2023-03-29T14:50:42.652Z,158
2023-03-29T14:52:26.064Z,164
2023-03-29T14:54:09.494Z,160
2023-03-29T14:55:52.850Z,157
2023-03-29T14:57:36.549Z,170
2023-03-29T14:59:19.952Z,181
2023-03-29T15:01:03.339Z,151
2023-03-29T15:02:46.746Z,124
2023-03-29T15:04:30.141Z,117
2023-03-29T15:06:13.537Z,129
2023-03-29T15:07:56.926Z,158
2023-03-29T15:09:40.338Z,250
2023-03-29T15:11:24.034Z,236
2023-03-29T15:13:07.445Z,214
2023-03-29T15:14:50.815Z,187
2023-03-29T15:16:34.231Z,182
2023-03-29T15:18:17.626Z,175
2023-03-29T15:20:01.028Z,152
2023-03-29T15:21:44.433Z,132
2023-03-29T15:23:27.815Z,125
2023-03-29T15:25:11.514Z,114
2023-03-29T15:26:54.907Z,107
2023-03-29T15:28:38.313Z,94
2023-03-29T15:30:21.700Z,87
2023-03-29T15:32:05.105Z,86
2023-03-29T15:33:48.514Z,92
2023-03-29T15:35:31.913Z,100
2023-03-29T15:37:15.289Z,108
2023-03-29T15:38:58.995Z,110
2023-03-29T15:40:42.400Z,106
2023-03-29T15:42:25.789Z,102
2023-03-29T15:44:09.193Z,100
2023-03-29T15:45:52.572Z,103
2023-03-29T15:47:35.991Z,113
2023-03-29T15:49:19.382Z,134
2023-03-29T15:54:28.971Z,314
2023-03-29T15:56:12.057Z,229
2023-03-29T15:57:55.449Z,233
2023-03-29T15:59:38.825Z,303
2023-03-29T16:01:22.206Z,431
2023-03-29T16:03:05.617Z,450
2023-03-29T16:04:49.008Z,599
2023-03-29T16:09:58.292Z,288
2023-03-29T16:11:41.657Z,208
2023-03-29T16:13:25.043Z,179
2023-03-29T16:15:08.464Z,142
2023-03-29T16:16:51.837Z,119
2023-03-29T16:18:35.250Z,116
2023-03-29T16:20:18.628Z,107
2023-03-29T16:25:27.879Z,93
2023-03-29T16:27:11.331Z,92
2023-03-29T16:28:54.666Z,86
2023-03-29T16:30:38.072Z,86
2023-03-29T16:32:21.446Z,89
2023-03-29T16:34:04.867Z,93
2023-03-29T16:35:48.284Z,96
2023-03-29T16:39:14.721Z,161
2023-03-29T16:40:58.118Z,138
2023-03-29T16:42:41.506Z,137
2023-03-29T16:44:25.017Z,131
2023-03-29T16:46:08.316Z,135
2023-03-29T16:47:51.751Z,138
2023-03-29T16:49:35.151Z,133
2023-03-29T16:54:44.340Z,79
2023-03-29T16:56:27.763Z,71
2023-03-29T16:58:11.139Z,65
2023-03-29T16:59:54.539Z,59
2023-03-29T17:01:37.942Z,49
2023-03-29T17:03:21.358Z,39
2023-03-29T17:05:04.740Z,36
2023-03-29T17:08:31.198Z,30
2023-03-29T17:10:14.588Z,28
2023-03-29T17:11:58.009Z,26
2023-03-29T17:13:41.393Z,25
2023-03-29T17:15:24.783Z,22
2023-03-29T17:17:08.205Z,21
2023-03-29T17:18:51.591Z,17
2023-03-29T17:20:34.989Z,14
2023-03-29T17:22:18.677Z,12
2023-03-29T17:24:02.085Z,11
2023-03-29T17:25:45.508Z,10
2023-03-29T17:27:28.857Z,8
2023-03-29T17:29:12.286Z,7
2023-03-29T17:30:55.702Z,6
2023-03-29T17:32:39.063Z,5
2023-03-29T17:34:22.458Z,3
2023-03-29T17:37:48.945Z,9
2023-03-29T17:39:32.360Z,9
2023-03-29T17:41:15.734Z,9
2023-03-29T17:42:59.123Z,8
2023-03-29T17:44:42.522Z,8
2023-03-29T17:46:25.923Z,8
2023-03-29T17:48:09.313Z,9
2023-03-29T17:53:19.010Z,8
2023-03-29T17:55:01.960Z,9
2023-03-29T17:56:45.351Z,8
2023-03-29T17:58:28.757Z,8
2023-03-29T18:00:12.154Z,8
2023-03-29T18:01:55.542Z,8
2023-03-29T18:03:38.952Z,7
2023-03-29T18:05:22.324Z,8
2023-03-29T18:07:06.050Z,8
2023-03-29T18:08:49.451Z,9
2023-03-29T18:10:32.821Z,9
2023-03-29T18:12:16.240Z,9
2023-03-29T18:13:59.633Z,8
2023-03-29T18:15:43.025Z,255
2023-03-29T18:17:26.421Z,252
2023-03-29T18:19:09.829Z,254
2023-03-29T18:22:36.304Z,253
2023-03-29T18:24:19.703Z,252
2023-03-29T18:26:03.104Z,9
2023-03-29T18:27:46.478Z,9
2023-03-29T18:29:29.884Z,8
2023-03-29T18:31:13.288Z,9
2023-03-29T18:32:56.684Z,9
2023-03-29T18:34:40.081Z,9
2023-03-29T18:38:06.541Z,8
2023-03-29T18:39:49.944Z,9
2023-03-29T18:41:33.348Z,9
2023-03-29T18:43:16.729Z,9
2023-03-29T18:45:00.138Z,9
2023-03-29T18:46:43.530Z,10
2023-03-29T18:48:26.935Z,9
2023-03-29T18:50:10.316Z,9
2023-03-29T18:51:54.036Z,9
2023-03-29T18:53:37.438Z,8
2023-03-29T18:55:20.815Z,9
2023-03-29T18:57:04.218Z,9
2023-03-29T18:58:47.615Z,9
2023-03-29T19:00:31.015Z,10
2023-03-29T19:02:14.406Z,10
2023-03-29T19:03:57.814Z,10
2023-03-29T19:07:24.296Z,9
2023-03-29T19:09:07.682Z,9
2023-03-29T19:10:51.080Z,10
2023-03-29T19:12:34.476Z,9
2023-03-29T19:14:17.858Z,9
2023-03-29T19:16:01.274Z,10
2023-03-29T19:17:44.649Z,9
2023-03-29T19:19:28.067Z,9
2023-03-29T19:22:54.532Z,9
2023-03-29T19:24:37.937Z,9
2023-03-29T19:26:21.320Z,10
2023-03-29T19:28:04.740Z,10
2023-03-29T19:29:48.132Z,9
2023-03-29T19:31:31.512Z,9
2023-03-29T19:33:14.904Z,10
2023-03-29T19:34:58.324Z,7
2023-03-29T19:38:24.785Z,9
2023-03-29T19:40:08.170Z,10
2023-03-29T19:41:51.576Z,9
2023-03-29T19:43:34.971Z,8
2023-03-29T19:45:18.373Z,8
2023-03-29T19:47:01.765Z,8
2023-03-29T19:48:45.166Z,10
2023-03-29T19:50:28.563Z,10
2023-03-29T19:52:12.259Z,9
2023-03-29T19:53:55.647Z,10
2023-03-29T19:55:39.061Z,9
2023-03-29T19:57:22.468Z,9
2023-03-29T19:59:05.842Z,10
2023-03-29T20:00:49.278Z,9
2023-03-29T20:02:32.633Z,9
2023-03-29T20:04:16.062Z,9
2023-03-29T20:07:42.526Z,9
2023-03-29T20:09:25.904Z,9
2023-03-29T20:11:09.288Z,9
2023-03-29T20:12:52.713Z,10
2023-03-29T20:14:36.097Z,9
2023-03-29T20:16:19.499Z,9
2023-03-29T20:18:02.893Z,9
2023-03-29T20:26:38.935Z,9
2023-03-29T20:28:22.343Z,9
2023-03-29T20:30:05.734Z,9
2023-03-29T20:31:49.114Z,9
2023-03-29T20:33:32.537Z,9
2023-03-29T20:35:15.931Z,9
2023-03-29T20:36:59.631Z,9
2023-03-29T20:38:43.048Z,10
2023-03-29T20:40:26.406Z,9
2023-03-29T20:42:09.904Z,9
2023-03-29T20:43:53.283Z,9
2023-03-29T20:45:36.600Z,9
2023-03-29T20:47:20.008Z,9
2023-03-29T20:49:03.393Z,10
2023-03-29T20:52:29.868Z,9
2023-03-29T20:54:13.258Z,8
2023-03-29T20:55:56.666Z,8
2023-03-29T20:57:40.070Z,9
2023-03-29T20:59:23.459Z,8
2023-03-29T21:01:06.855Z,9
2023-03-29T21:02:50.266Z,9
2023-03-29T21:04:33.669Z,9
2023-03-29T21:08:00.157Z,8
2023-03-29T21:09:43.526Z,9
2023-03-29T21:11:26.908Z,9
2023-03-29T21:13:10.308Z,9
2023-03-29T21:14:53.729Z,9
2023-03-29T21:16:37.111Z,9
2023-03-29T21:18:20.511Z,9
2023-03-29T21:20:03.912Z,9
2023-03-29T21:23:30.378Z,9
2023-03-29T21:25:13.763Z,9
2023-03-29T21:27:09.964Z,8
2023-03-29T21:28:40.555Z,9
2023-03-29T21:30:23.944Z,9
2023-03-29T21:32:07.381Z,10
2023-03-29T21:33:50.753Z,9
2023-03-29T21:35:34.141Z,10
2023-03-29T21:37:17.851Z,9
2023-03-29T21:39:01.267Z,9
2023-03-29T21:40:44.645Z,9
2023-03-29T21:42:28.053Z,9
2023-03-29T21:44:11.432Z,9
2023-03-29T21:45:54.837Z,9
2023-03-29T21:47:38.218Z,9
2023-03-29T21:49:21.635Z,8
2023-03-29T21:52:48.089Z,9
2023-03-29T21:54:31.505Z,9
2023-03-29T21:56:14.910Z,8
2023-03-29T21:57:58.302Z,8
2023-03-29T21:59:41.693Z,8
2023-03-29T22:01:25.100Z,9
2023-03-29T22:03:08.481Z,9
2023-03-29T22:08:17.739Z,8
2023-03-29T22:10:01.140Z,9
2023-03-29T22:11:44.519Z,9
2023-03-29T22:13:27.925Z,9
2023-03-29T22:15:11.303Z,10
2023-03-29T22:16:54.701Z,9
2023-03-29T22:18:38.101Z,10
2023-03-29T22:22:04.570Z,9
2023-03-29T22:23:47.976Z,9
2023-03-29T22:25:31.383Z,9
2023-03-29T22:27:14.761Z,9
2023-03-29T22:28:58.152Z,9
2023-03-29T22:30:41.542Z,9
2023-03-29T22:32:24.941Z,9
2023-03-29T22:35:51.433Z,9
2023-03-29T22:37:34.827Z,9
2023-03-29T22:39:18.227Z,9
2023-03-29T22:41:01.623Z,9
2023-03-29T22:42:45.008Z,9
2023-03-29T22:44:28.413Z,9
2023-03-29T22:46:11.828Z,10
2023-03-29T22:51:21.035Z,9
2023-03-29T22:53:04.426Z,9
2023-03-29T22:54:47.845Z,9
2023-03-29T22:56:31.225Z,9
2023-03-29T22:58:14.652Z,9
2023-03-29T22:59:58.052Z,9
2023-03-29T23:01:41.424Z,9
2023-03-29T23:05:07.903Z,9
2023-03-29T23:06:51.299Z,9
2023-03-29T23:08:34.701Z,9
2023-03-29T23:10:18.071Z,8
2023-03-29T23:12:01.477Z,9
2023-03-29T23:13:44.882Z,9
2023-03-29T23:15:28.285Z,9
2023-03-29T23:17:11.672Z,9
2023-03-29T23:18:55.377Z,1
2023-03-29T23:20:38.767Z,2
2023-03-29T23:22:22.168Z,1
2023-03-29T23:24:05.569Z,2
2023-03-29T23:25:48.969Z,1
2023-03-29T23:27:32.371Z,2
2023-03-29T23:29:15.755Z,2
2023-03-29T23:34:24.996Z,2
2023-03-29T23:36:08.403Z,1
2023-03-29T23:37:51.799Z,1
2023-03-29T23:39:35.188Z,1
2023-03-29T23:41:18.640Z,2
2023-03-29T23:43:01.979Z,2
2023-03-29T23:44:45.384Z,1
2023-03-29T23:48:11.841Z,1
2023-03-29T23:49:55.308Z,2
2023-03-29T23:51:38.648Z,2
2023-03-29T23:53:22.032Z,1
2023-03-29T23:55:05.439Z,1
2023-03-29T23:56:48.819Z,2
2023-03-29T23:58:32.226Z,1
